createdAt,value
2018-07-11T00:02:04.322Z,4.20
2018-07-11T00:04:31.780Z,4.00
2018-07-11T00:07:00.068Z,4.83
2018-07-11T00:09:28.038Z,4.40
2018-07-11T00:11:55.693Z,4.40
2018-07-11T00:14:23.610Z,4.20
2018-07-11T00:16:56.801Z,4.80
2018-07-11T00:19:25.564Z,3.87
2018-07-11T00:21:53.760Z,4.20
2018-07-11T00:24:21.332Z,3.43
2018-07-11T00:26:48.936Z,4.50
2018-07-11T00:29:16.540Z,3.67
2018-07-11T00:31:44.525Z,4.53
2018-07-11T00:34:12.684Z,4.80
2018-07-11T00:36:40.287Z,5.43
2018-07-11T00:39:07.813Z,4.30
2018-07-11T00:41:36.960Z,4.83
2018-07-11T00:44:04.872Z,4.70
2018-07-11T00:46:33.206Z,4.40
2018-07-11T00:49:01.136Z,4.03
2018-07-11T00:51:28.751Z,4.00
2018-07-11T00:53:56.330Z,4.13
2018-07-11T00:56:23.954Z,3.67
2018-07-11T00:58:57.962Z,3.67
2018-07-11T01:01:25.663Z,4.13
2018-07-11T01:03:56.795Z,4.10
2018-07-11T01:06:24.418Z,4.30
2018-07-11T01:08:55.586Z,4.83
2018-07-11T01:11:23.370Z,5.50
2018-07-11T01:13:51.560Z,5.63
2018-07-11T01:16:20.615Z,5.60
2018-07-11T01:19:11.141Z,5.10
2018-07-11T01:21:39.112Z,5.00
2018-07-11T01:24:06.791Z,5.60
2018-07-11T01:26:36.434Z,4.63
2018-07-11T01:29:04.695Z,4.37
2018-07-11T01:31:32.286Z,4.53
2018-07-11T01:34:00.902Z,3.47
2018-07-11T01:36:28.927Z,3.80
2018-07-11T01:38:57.686Z,4.57
2018-07-11T01:41:25.230Z,5.27
2018-07-11T01:43:53.195Z,4.57
2018-07-11T01:46:20.767Z,5.30
2018-07-11T01:48:48.370Z,4.23
2018-07-11T01:51:15.948Z,5.10
2018-07-11T01:53:43.495Z,5.47
2018-07-11T01:56:11.558Z,4.17
2018-07-11T01:58:41.012Z,4.93
2018-07-11T02:01:09.117Z,5.10
2018-07-11T02:03:37.706Z,4.00
2018-07-11T02:06:05.263Z,5.27
2018-07-11T02:08:33.399Z,5.43
2018-07-11T02:11:01.308Z,5.70
2018-07-11T02:13:28.906Z,4.40
2018-07-11T02:15:56.792Z,5.57
2018-07-11T02:18:26.490Z,5.90
2018-07-11T02:20:54.797Z,6.23
2018-07-11T02:23:23.077Z,5.90
2018-07-11T02:25:50.781Z,6.03
2018-07-11T02:28:18.914Z,6.93
2018-07-11T02:30:46.809Z,6.37
2018-07-11T02:33:14.391Z,6.27
2018-07-11T02:35:42.711Z,5.33
2018-07-11T02:38:10.823Z,6.47
2018-07-11T02:40:38.419Z,6.60
2018-07-11T02:43:06.446Z,4.83
2018-07-11T02:45:34.554Z,5.70
2018-07-11T02:48:02.359Z,6.60
2018-07-11T02:50:30.475Z,6.17
2018-07-11T02:52:58.631Z,6.10
2018-07-11T02:55:26.216Z,5.37
2018-07-11T02:57:53.768Z,5.50
2018-07-11T03:00:21.863Z,5.40
2018-07-11T03:02:50.205Z,5.97
2018-07-11T03:05:19.376Z,5.97
2018-07-11T03:07:47.793Z,7.07
2018-07-11T03:10:15.368Z,7.97
2018-07-11T03:12:42.904Z,7.70
2018-07-11T03:15:11.084Z,7.43
2018-07-11T03:17:39.688Z,5.20
2018-07-11T03:20:07.254Z,5.67
2018-07-11T03:22:34.804Z,4.80
2018-07-11T03:25:02.425Z,5.40
2018-07-11T03:27:30.020Z,5.30
2018-07-11T03:29:57.694Z,6.23
2018-07-11T03:32:25.376Z,6.10
2018-07-11T03:34:54.085Z,5.60
2018-07-11T03:37:21.640Z,6.90
2018-07-11T03:39:49.998Z,6.97
2018-07-11T03:42:17.921Z,7.60
2018-07-11T03:44:45.975Z,7.33
2018-07-11T03:47:14.102Z,8.17
2018-07-11T03:49:41.640Z,7.47
2018-07-11T03:52:09.239Z,7.13
2018-07-11T03:54:37.016Z,6.50
2018-07-11T03:57:04.571Z,7.07
2018-07-11T03:59:33.203Z,7.33
2018-07-11T04:02:01.601Z,8.50
2018-07-11T04:04:29.107Z,8.97
2018-07-11T04:06:57.019Z,6.93
2018-07-11T04:16:12.492Z,6.80
2018-07-11T04:18:41.131Z,6.93
2018-07-11T04:21:08.625Z,7.30
2018-07-11T04:23:36.913Z,6.33
2018-07-11T04:26:05.708Z,7.40
2018-07-11T04:28:33.264Z,6.60
2018-07-11T04:31:01.142Z,7.13
2018-07-11T04:33:29.433Z,7.37
2018-07-11T04:35:56.988Z,5.53
2018-07-11T04:38:24.961Z,5.97
2018-07-11T04:40:52.584Z,5.87
2018-07-11T04:43:22.714Z,6.37
2018-07-11T04:45:50.852Z,6.73
2018-07-11T04:48:19.432Z,6.00
2018-07-11T04:50:47.516Z,6.63
2018-07-11T04:53:19.944Z,6.30
2018-07-11T04:55:47.578Z,6.33
2018-07-11T04:58:15.084Z,5.07
2018-07-11T05:00:42.881Z,5.37
2018-07-11T05:03:12.084Z,5.17
2018-07-11T05:05:39.595Z,6.27
2018-07-11T05:08:07.441Z,6.30
2018-07-11T05:10:35.537Z,6.77
2018-07-11T05:13:03.089Z,5.33
2018-07-11T05:15:30.644Z,5.43
2018-07-11T05:17:58.680Z,6.40
2018-07-11T05:20:26.192Z,6.10
2018-07-11T05:22:53.698Z,5.47
2018-07-11T05:25:21.255Z,5.97
2018-07-11T05:27:48.746Z,9.70
2018-07-11T05:30:16.546Z,6.43
2018-07-11T05:32:44.087Z,7.13
2018-07-11T05:35:12.354Z,6.07
2018-07-11T05:37:40.266Z,5.97
2018-07-11T05:40:07.775Z,4.57
2018-07-11T05:42:35.696Z,5.50
2018-07-11T05:45:03.534Z,4.60
2018-07-11T05:47:31.042Z,5.80
2018-07-11T05:49:58.609Z,7.67
2018-07-11T05:52:26.127Z,4.57
2018-07-11T05:54:53.644Z,5.83
2018-07-11T05:57:21.223Z,4.83
2018-07-11T05:59:49.329Z,4.03
2018-07-11T06:02:17.310Z,4.10
2018-07-11T06:04:44.819Z,4.73
2018-07-11T06:07:13.147Z,4.03
2018-07-11T06:09:42.186Z,3.90
2018-07-11T06:12:09.662Z,3.70
2018-07-11T06:14:37.218Z,5.33
2018-07-11T06:17:04.760Z,4.60
2018-07-11T06:19:33.116Z,4.40
2018-07-11T06:22:00.639Z,4.90
2018-07-11T06:24:28.131Z,4.30
2018-07-11T06:26:56.175Z,5.07
2018-07-11T06:29:23.697Z,5.23
2018-07-11T06:31:51.770Z,5.30
2018-07-11T06:34:19.669Z,5.20
2018-07-11T06:36:47.170Z,5.60
2018-07-11T06:39:14.707Z,3.90
2018-07-11T06:41:42.666Z,5.40
2018-07-11T06:44:10.615Z,3.80
2018-07-11T06:46:39.050Z,4.00
2018-07-11T06:49:06.620Z,6.07
2018-07-11T06:51:34.215Z,4.90
2018-07-11T06:54:01.832Z,5.27
2018-07-11T06:56:29.428Z,4.27
2018-07-11T06:58:57.376Z,4.30
2018-07-11T07:01:24.957Z,3.43
2018-07-11T07:03:52.894Z,5.00
2018-07-11T07:06:21.121Z,3.83
2018-07-11T07:08:49.055Z,3.43
2018-07-11T07:11:16.556Z,4.80
2018-07-11T07:13:44.075Z,4.07
2018-07-11T07:16:11.783Z,5.13
2018-07-11T07:18:39.912Z,3.90
2018-07-11T07:21:07.415Z,4.47
2018-07-11T07:23:34.929Z,4.87
2018-07-11T07:26:02.489Z,6.30
2018-07-11T07:28:30.735Z,4.90
2018-07-11T07:30:58.893Z,5.10
2018-07-11T07:33:27.786Z,4.33
2018-07-11T07:35:55.836Z,4.17
2018-07-11T07:38:23.771Z,5.23
2018-07-11T07:40:51.498Z,4.63
2018-07-11T07:43:19.652Z,3.33
2018-07-11T07:45:47.217Z,4.57
2018-07-11T07:48:14.884Z,10.80
2018-07-11T07:50:43.455Z,12.23
2018-07-11T07:53:11.056Z,7.33
2018-07-11T07:55:39.008Z,6.70
2018-07-11T07:58:06.617Z,5.63
2018-07-11T08:00:35.046Z,6.23
2018-07-11T08:03:03.008Z,5.10
2018-07-11T08:05:31.322Z,6.30
2018-07-11T08:07:59.463Z,5.57
2018-07-11T08:10:27.711Z,6.23
2018-07-11T08:12:55.233Z,6.20
2018-07-11T08:15:22.803Z,5.93
2018-07-11T08:17:51.151Z,6.07
2018-07-11T08:20:18.863Z,6.07
2018-07-11T08:23:10.585Z,5.63
2018-07-11T08:25:49.698Z,5.00
2018-07-11T08:29:28.250Z,5.53
2018-07-11T08:32:06.146Z,6.27
2018-07-11T08:36:58.611Z,6.93
2018-07-11T08:40:41.044Z,5.20
2018-07-11T08:43:22.603Z,5.30
2018-07-11T08:46:04.540Z,5.90
2018-07-11T08:49:42.306Z,5.97
2018-07-11T08:52:23.748Z,7.10
2018-07-11T08:55:36.506Z,5.93
2018-07-11T08:58:07.582Z,5.67
2018-07-11T09:02:52.323Z,6.30
2018-07-11T09:05:30.101Z,6.43
2018-07-11T09:08:18.119Z,4.93
2018-07-11T09:13:00.632Z,6.00
2018-07-11T09:17:45.731Z,4.93
2018-07-11T09:20:24.404Z,4.33
2018-07-11T09:23:19.928Z,4.90
2018-07-11T09:25:47.928Z,5.03
2018-07-11T09:28:15.916Z,5.77
2018-07-11T09:30:43.984Z,6.57
2018-07-11T09:33:12.636Z,5.70
2018-07-11T09:35:40.970Z,5.70
2018-07-11T09:38:08.492Z,6.60
2018-07-11T09:40:36.220Z,6.10
2018-07-11T09:43:03.802Z,6.40
2018-07-11T09:45:32.053Z,4.40
2018-07-11T09:47:59.624Z,5.73
2018-07-11T09:50:27.600Z,4.67
2018-07-11T09:52:55.176Z,4.57
2018-07-11T09:55:22.804Z,5.20
2018-07-11T09:57:50.522Z,4.17
2018-07-11T10:00:24.289Z,5.10
2018-07-11T10:02:52.312Z,4.60
2018-07-11T10:05:20.297Z,5.27
2018-07-11T10:07:48.468Z,5.77
2018-07-11T10:10:17.464Z,5.90
2018-07-11T10:12:45.736Z,6.37
2018-07-11T10:15:13.249Z,6.50
2018-07-11T10:17:41.425Z,6.20
2018-07-11T10:20:09.069Z,7.87
2018-07-11T10:22:36.960Z,6.30
2018-07-11T10:25:04.546Z,11.17
2018-07-11T10:27:32.127Z,6.67
2018-07-11T10:29:59.678Z,6.00
2018-07-11T10:32:27.242Z,5.20
2018-07-11T10:34:55.119Z,5.50
2018-07-11T10:37:22.669Z,5.30
2018-07-11T10:39:50.209Z,5.53
2018-07-11T10:42:17.929Z,6.07
2018-07-11T10:44:45.928Z,5.87
2018-07-11T10:47:13.755Z,6.00
2018-07-11T10:49:42.828Z,5.60
2018-07-11T10:52:10.703Z,5.50
2018-07-11T10:54:38.721Z,7.10
2018-07-11T10:57:06.798Z,6.30
2018-07-11T10:59:34.409Z,5.90
2018-07-11T11:02:02.008Z,6.63
2018-07-11T11:04:30.434Z,5.07
2018-07-11T11:06:58.002Z,4.73
2018-07-11T11:09:26.289Z,4.10
2018-07-11T11:11:53.839Z,4.20
2018-07-11T11:14:21.815Z,4.67
2018-07-11T11:16:49.409Z,4.40
2018-07-11T11:19:18.275Z,5.40
2018-07-11T11:21:46.384Z,5.00
2018-07-11T11:24:14.223Z,3.77
2018-07-11T11:26:41.771Z,4.70
2018-07-11T11:29:09.296Z,3.93
2018-07-11T11:31:36.850Z,4.30
2018-07-11T11:34:04.895Z,4.50
2018-07-11T11:36:32.417Z,3.70
2018-07-11T11:38:59.930Z,4.10
2018-07-11T11:41:27.653Z,5.33
2018-07-11T11:43:55.771Z,4.07
2018-07-11T11:46:23.867Z,5.47
2018-07-11T11:48:51.379Z,4.10
2018-07-11T11:51:18.906Z,4.00
2018-07-11T11:53:47.098Z,4.30
2018-07-11T11:56:14.684Z,4.80
2018-07-11T11:58:42.260Z,6.17
2018-07-11T12:01:09.813Z,5.53
2018-07-11T12:03:37.873Z,6.50
2018-07-11T12:06:05.727Z,5.60
2018-07-11T12:08:33.633Z,6.47
2018-07-11T12:11:01.170Z,6.80
2018-07-11T12:13:28.739Z,8.23
2018-07-11T12:15:56.354Z,8.00
2018-07-11T12:18:25.196Z,8.73
2018-07-11T12:20:56.330Z,7.80
2018-07-11T12:23:23.924Z,9.00
2018-07-11T12:26:04.851Z,8.40
2018-07-11T12:28:32.514Z,7.83
2018-07-11T12:31:00.129Z,8.30
2018-07-11T12:33:28.684Z,8.60
2018-07-11T12:35:57.061Z,6.67
2018-07-11T12:38:24.674Z,6.40
2018-07-11T12:40:52.266Z,6.23
2018-07-11T12:43:20.392Z,7.03
2018-07-11T12:45:47.918Z,5.93
2018-07-11T12:48:21.295Z,5.83
2018-07-11T12:50:49.700Z,6.10
2018-07-11T12:53:17.696Z,5.27
2018-07-11T12:55:45.484Z,4.80
2018-07-11T12:58:13.585Z,4.80
2018-07-11T13:00:41.684Z,6.23
2018-07-11T13:03:09.806Z,4.63
2018-07-11T13:05:37.719Z,4.87
2018-07-11T13:08:05.820Z,4.70
2018-07-11T13:10:33.559Z,4.90
2018-07-11T13:13:01.012Z,5.50
2018-07-11T13:15:28.976Z,5.17
2018-07-11T13:17:56.915Z,5.30
2018-07-11T13:20:24.469Z,4.30
2018-07-11T13:22:52.705Z,5.10
2018-07-11T13:25:20.769Z,4.50
2018-07-11T13:27:48.356Z,4.57
2018-07-11T13:30:15.942Z,4.40
2018-07-11T13:32:43.716Z,3.40
2018-07-11T13:35:11.913Z,4.03
2018-07-11T13:37:39.496Z,4.40
2018-07-11T13:40:07.426Z,3.80
2018-07-11T13:42:35.317Z,3.80
2018-07-11T13:45:03.288Z,4.50
2018-07-11T13:47:30.820Z,4.93
2018-07-11T13:49:59.550Z,4.37
2018-07-11T13:52:27.232Z,4.53
2018-07-11T13:54:55.174Z,4.50
2018-07-11T13:57:23.961Z,4.70
2018-07-11T13:59:51.542Z,3.80
2018-07-11T14:02:20.243Z,3.33
2018-07-11T14:04:48.708Z,4.57
2018-07-11T14:07:16.343Z,3.70
2018-07-11T14:09:44.356Z,4.13
2018-07-11T14:12:12.462Z,4.10
2018-07-11T14:14:40.214Z,4.43
2018-07-11T14:17:07.743Z,4.50
2018-07-11T14:19:35.527Z,4.30
2018-07-11T14:22:03.495Z,4.60
2018-07-11T14:24:31.496Z,4.03
2018-07-11T14:26:59.079Z,4.03
2018-07-11T14:29:28.679Z,4.20
2018-07-11T14:31:56.842Z,4.30
2018-07-11T14:34:24.895Z,4.10
2018-07-11T14:36:52.653Z,3.90
2018-07-11T14:39:20.567Z,4.33
2018-07-11T14:41:48.503Z,3.87
2018-07-11T14:44:17.157Z,4.70
2018-07-11T14:46:45.706Z,4.80
2018-07-11T14:49:15.348Z,3.90
2018-07-11T14:51:43.272Z,4.43
2018-07-11T14:54:10.884Z,4.47
2018-07-11T14:56:38.483Z,4.20
2018-07-11T14:59:06.172Z,3.83
2018-07-11T15:01:34.523Z,4.13
2018-07-11T15:04:02.648Z,4.10
2018-07-11T15:06:30.150Z,4.23
2018-07-11T15:08:58.130Z,4.10
2018-07-11T15:11:25.922Z,4.63
2018-07-11T15:13:53.733Z,3.70
2018-07-11T15:16:21.570Z,3.67
2018-07-11T15:18:50.516Z,4.20
2018-07-11T15:21:18.076Z,3.40
2018-07-11T15:23:45.576Z,3.23
2018-07-11T15:26:13.222Z,3.10
2018-07-11T15:28:41.656Z,3.00
2018-07-11T15:31:09.260Z,3.10
2018-07-11T15:33:37.364Z,2.80
2018-07-11T15:36:05.676Z,3.13
2018-07-11T15:38:33.283Z,3.13
2018-07-11T15:41:01.353Z,3.40
2018-07-11T15:43:29.834Z,3.90
2018-07-11T15:45:58.211Z,4.20
2018-07-11T15:48:25.825Z,3.90
2018-07-11T15:50:54.173Z,3.30
2018-07-11T15:53:22.594Z,2.93
2018-07-11T15:55:51.140Z,3.00
2018-07-11T15:58:20.300Z,2.77
2018-07-11T16:00:48.200Z,3.63
2018-07-11T16:03:17.776Z,4.07
2018-07-11T16:05:46.118Z,3.87
2018-07-11T16:08:16.640Z,3.67
2018-07-11T16:10:49.062Z,3.40
2018-07-11T16:13:16.924Z,3.90
2018-07-11T16:15:45.302Z,4.30
2018-07-11T16:18:13.271Z,4.17
2018-07-11T16:20:41.496Z,3.60
2018-07-11T16:23:09.911Z,3.70
2018-07-11T16:25:39.009Z,4.10
2018-07-11T16:28:06.688Z,4.00
2018-07-11T16:30:34.544Z,4.27
2018-07-11T16:33:03.203Z,3.93
2018-07-11T16:35:31.344Z,6.27
2018-07-11T16:37:59.413Z,4.13
2018-07-11T16:40:28.032Z,4.30
2018-07-11T16:42:56.690Z,4.13
2018-07-11T16:45:26.593Z,4.73
2018-07-11T16:47:55.436Z,4.00
2018-07-11T16:50:23.842Z,5.43
2018-07-11T16:52:52.628Z,4.40
2018-07-11T16:55:21.143Z,4.00
2018-07-11T16:57:50.531Z,3.60
2018-07-11T17:00:27.548Z,4.03
2018-07-11T17:03:07.241Z,4.07
2018-07-11T17:05:47.412Z,4.70
2018-07-11T17:08:27.454Z,3.70
2018-07-11T17:11:00.662Z,3.60
2018-07-11T17:13:29.540Z,5.50
2018-07-11T17:15:57.617Z,5.20
2018-07-11T17:18:34.378Z,4.63
2018-07-11T17:21:07.544Z,3.80
2018-07-11T17:23:39.152Z,5.30
2018-07-11T17:26:07.673Z,5.30
2018-07-11T17:28:35.616Z,4.53
2018-07-11T17:31:03.529Z,3.90
2018-07-11T17:33:32.270Z,3.83
2018-07-11T17:36:00.131Z,5.13
2018-07-11T17:38:30.695Z,4.50
2018-07-11T17:41:01.355Z,4.70
2018-07-11T17:43:36.875Z,4.10
2018-07-11T17:46:06.060Z,4.10
2018-07-11T17:48:42.092Z,4.60
2018-07-11T17:51:23.902Z,4.60
2018-07-11T17:53:55.412Z,5.90
2018-07-11T17:56:26.790Z,4.63
2018-07-11T17:58:55.926Z,5.30
2018-07-11T18:01:40.883Z,5.07
2018-07-11T18:04:15.511Z,5.20
2018-07-11T18:06:59.944Z,4.83
2018-07-11T18:09:38.399Z,4.17
2018-07-11T18:12:21.314Z,3.10
2018-07-11T18:14:57.115Z,3.80
2018-07-11T18:18:49.339Z,4.47
2018-07-11T18:22:28.140Z,5.20
2018-07-11T18:25:31.646Z,5.00
2018-07-11T18:28:14.454Z,5.50
2018-07-11T18:30:54.456Z,5.23
2018-07-11T18:33:33.064Z,3.90
2018-07-11T18:36:12.593Z,5.30
2018-07-11T18:38:53.872Z,3.63
2018-07-11T18:41:41.869Z,4.60
2018-07-11T18:44:25.059Z,4.50
2018-07-11T18:48:03.033Z,4.80
2018-07-11T18:50:51.352Z,5.20
2018-07-11T18:53:44.192Z,5.23
2018-07-11T18:57:17.738Z,4.93
2018-07-11T18:59:55.793Z,4.27
2018-07-11T19:03:10.868Z,4.50
2018-07-11T19:05:46.202Z,4.17
2018-07-11T19:08:27.906Z,3.77
2018-07-11T19:11:02.404Z,5.53
2018-07-11T19:13:32.472Z,5.60
2018-07-11T19:16:12.886Z,5.17
2018-07-11T19:19:09.192Z,4.10
2018-07-11T19:21:51.012Z,4.73
2018-07-11T19:24:19.488Z,6.33
2018-07-11T19:27:04.449Z,6.50
2018-07-11T19:30:16.492Z,6.00
2018-07-11T19:33:51.028Z,6.00
2018-07-11T19:37:27.905Z,6.10
2018-07-11T19:40:12.020Z,4.97
2018-07-11T19:43:07.942Z,4.90
2018-07-11T19:46:49.321Z,5.03
2018-07-11T19:49:25.450Z,5.47
2018-07-11T19:52:02.751Z,5.30
2018-07-11T19:54:41.183Z,5.40
2018-07-11T19:57:09.553Z,6.63
2018-07-11T19:59:37.568Z,7.47
2018-07-11T20:02:05.239Z,6.63
2018-07-11T20:04:33.544Z,5.40
2018-07-11T20:07:01.604Z,6.63
2018-07-11T20:09:30.305Z,6.10
2018-07-11T20:11:58.140Z,6.93
2018-07-11T20:14:27.465Z,8.47
2018-07-11T20:16:55.012Z,6.37
2018-07-11T20:19:23.118Z,6.60
2018-07-11T20:21:50.708Z,4.73
2018-07-11T20:24:18.643Z,6.80
2018-07-11T20:26:46.753Z,5.47
2018-07-11T20:29:14.924Z,4.73
2018-07-11T20:31:43.738Z,5.13
2018-07-11T20:34:12.033Z,5.37
2018-07-11T20:36:39.565Z,6.63
2018-07-11T20:39:07.694Z,5.53
2018-07-11T20:41:35.994Z,7.20
2018-07-11T20:44:04.215Z,4.60
2018-07-11T20:46:32.910Z,6.93
2018-07-11T20:49:06.233Z,6.10
2018-07-11T20:51:35.666Z,7.40
2018-07-11T20:54:03.530Z,7.17
2018-07-11T20:56:31.579Z,6.50
2018-07-11T20:59:10.460Z,6.70
2018-07-11T21:01:49.484Z,5.50
2018-07-11T21:04:26.065Z,7.00
2018-07-11T21:07:38.061Z,6.80
2018-07-11T21:10:28.188Z,5.70
2018-07-11T21:13:37.098Z,6.00
2018-07-11T21:16:16.492Z,6.50
2018-07-11T21:19:05.688Z,6.10
2018-07-11T21:21:34.504Z,7.37
2018-07-11T21:24:03.000Z,5.90
2018-07-11T21:26:30.512Z,6.83
2018-07-11T21:28:58.348Z,6.37
2018-07-11T21:31:26.288Z,8.47
2018-07-11T21:33:54.715Z,5.77
2018-07-11T21:36:22.296Z,6.50
2018-07-11T21:38:50.144Z,6.33
2018-07-11T21:41:18.552Z,6.33
2018-07-11T21:43:46.531Z,5.83
2018-07-11T21:46:14.729Z,4.83
2018-07-11T21:48:42.932Z,5.00
2018-07-11T21:51:10.497Z,6.07
2018-07-11T21:53:38.836Z,5.97
2018-07-11T21:56:06.360Z,6.10
2018-07-11T21:58:33.920Z,6.40
2018-07-11T22:01:02.427Z,5.50
2018-07-11T22:03:30.555Z,5.33
2018-07-11T22:05:57.992Z,4.50
2018-07-11T22:08:26.148Z,5.67
2018-07-11T22:10:53.740Z,4.87
2018-07-11T22:13:21.324Z,4.33
2018-07-11T22:15:49.696Z,6.67
2018-07-11T22:18:34.320Z,5.93
2018-07-11T22:21:02.140Z,5.10
2018-07-11T22:23:28.797Z,4.60
2018-07-11T22:25:55.195Z,4.73
2018-07-11T22:28:21.683Z,4.47
2018-07-11T22:30:48.576Z,5.63
2018-07-11T22:33:16.058Z,4.60
2018-07-11T22:35:42.985Z,4.50
2018-07-11T22:38:09.919Z,4.60
2018-07-11T22:40:36.568Z,3.30
2018-07-11T22:43:03.192Z,4.17
2018-07-11T22:45:30.120Z,4.37
2018-07-11T22:47:57.006Z,4.07
2018-07-11T22:50:24.766Z,3.60
2018-07-11T22:52:51.968Z,4.73
2018-07-11T22:55:19.452Z,4.47
2018-07-11T22:57:46.288Z,5.07
2018-07-11T23:00:12.752Z,4.40
2018-07-11T23:02:40.192Z,4.80
2018-07-11T23:05:06.979Z,4.67
2018-07-11T23:07:34.387Z,4.17
2018-07-11T23:10:00.824Z,4.53
2018-07-11T23:12:27.280Z,3.93
2018-07-11T23:14:54.224Z,4.40
2018-07-11T23:17:21.080Z,5.43
2018-07-11T23:19:48.198Z,4.27
2018-07-11T23:22:14.672Z,3.90
2018-07-11T23:24:41.595Z,4.03
2018-07-11T23:27:08.768Z,4.40
2018-07-11T23:29:35.241Z,4.07
2018-07-11T23:32:01.692Z,4.80
2018-07-11T23:34:28.676Z,4.40
2018-07-11T23:36:55.695Z,3.80
2018-07-11T23:39:22.230Z,4.10
2018-07-11T23:41:48.711Z,3.70
2018-07-11T23:44:15.512Z,3.90
2018-07-11T23:46:41.979Z,4.80
2018-07-11T23:49:08.858Z,4.43
2018-07-11T23:51:35.778Z,4.97
2018-07-11T23:54:02.256Z,5.57
2018-07-11T23:56:28.747Z,4.80
2018-07-11T23:58:55.211Z,4.83
